Time;durP1;ratioP1;P1;durP2;ratioP2;P2;SDS_P1;SDS_P2;PMS_P1;PMS_P2;Temp;Humidity;BMP_temperature;BMP_pressure;BME280_temperature;BME280_humidity;BME280_pressure;Samples;Min_cycle;Max_cycle;Signal;HPM_P1;HPM_P2
2022/01/21 00:00:24;;;;;;;1999.90;999.90;;;1.90;99.90;;;;;;5071372;28;20059;-64
2022/01/21 00:02:50;;;;;;;1999.90;999.90;;;1.90;99.90;;;;;;5071917;28;20476;-64
2022/01/21 00:05:18;;;;;;;1999.90;999.90;;;1.90;99.90;;;;;;5061105;28;20040;-64
2022/01/21 00:07:44;;;;;;;1999.90;999.90;;;1.90;99.90;;;;;;5062832;28;20044;-64
2022/01/21 00:10:10;;;;;;;1999.90;999.90;;;1.80;99.90;;;;;;5071850;28;20482;-64
2022/01/21 00:12:37;;;;;;;1999.90;999.90;;;1.80;99.90;;;;;;5072333;28;20554;-64
2022/01/21 00:15:06;;;;;;;1999.90;999.90;;;1.80;99.90;;;;;;5070859;28;20116;-64
2022/01/21 00:17:32;;;;;;;1999.90;999.90;;;1.80;99.90;;;;;;5071231;28;20131;-64
2022/01/21 00:31:06;;;;;;;1999.90;999.90;;;2.10;99.90;;;;;;5070179;28;20048;-65
2022/01/21 00:33:33;;;;;;;1999.90;999.90;;;2.20;99.90;;;;;;5071629;28;20056;-65
2022/01/21 00:35:59;;;;;;;1999.90;999.90;;;2.30;99.90;;;;;;5071275;28;20071;-64
2022/01/21 00:38:28;;;;;;;1999.90;999.90;;;2.40;99.90;;;;;;5053548;28;20060;-64
2022/01/21 00:40:57;;;;;;;1999.90;999.90;;;2.40;99.90;;;;;;5070667;28;20056;-65
2022/01/21 00:43:31;;;;;;;1999.90;999.90;;;2.50;99.90;;;;;;5062999;28;20506;-64
2022/01/21 00:45:58;;;;;;;1999.90;999.90;;;2.50;99.90;;;;;;5031731;28;20049;-65
2022/01/21 00:48:25;;;;;;;1999.90;999.90;;;2.60;99.90;;;;;;5030862;28;20463;-64
2022/01/21 00:50:52;;;;;;;1999.90;999.90;;;2.60;99.90;;;;;;5036525;28;20136;-65
2022/01/21 00:53:19;;;;;;;1999.90;999.90;;;2.60;99.90;;;;;;5075144;28;20041;-64
2022/01/21 00:55:45;;;;;;;1999.90;999.90;;;2.60;99.90;;;;;;5074036;28;20446;-64
2022/01/21 00:58:11;;;;;;;1999.90;999.90;;;2.60;99.90;;;;;;5074031;28;20044;-64
2022/01/21 01:00:37;;;;;;;1999.90;999.90;;;2.60;99.90;;;;;;5075371;28;20126;-64
2022/01/21 01:03:04;;;;;;;1999.90;999.90;;;2.60;99.90;;;;;;5075490;28;20040;-64
2022/01/21 01:05:30;;;;;;;1999.90;999.90;;;2.60;99.90;;;;;;5061755;28;20136;-64
2022/01/21 01:07:58;;;;;;;1999.90;999.90;;;2.60;99.90;;;;;;5054270;28;20126;-64
2022/01/21 01:10:45;;;;;;;1999.90;999.90;;;2.70;99.90;;;;;;5072055;28;20123;-64
2022/01/21 01:21:24;;;;;;;1999.90;999.90;;;2.70;99.90;;;;;;5073384;28;20123;-64
2022/01/21 01:29:01;;;;;;;1999.90;999.90;;;2.80;99.90;;;;;;5075110;28;20048;-64
2022/01/21 01:31:27;;;;;;;1999.90;999.90;;;2.80;99.90;;;;;;5057190;28;20060;-64
2022/01/21 01:33:58;;;;;;;1999.90;999.90;;;2.80;99.90;;;;;;5074249;28;20036;-64
2022/01/21 01:36:24;;;;;;;1999.90;999.90;;;2.70;99.90;;;;;;5074527;28;20120;-64
2022/01/21 01:39:09;;;;;;;1999.90;999.90;;;2.70;99.90;;;;;;5075020;28;20088;-64
2022/01/21 01:41:38;;;;;;;1999.90;999.90;;;2.70;99.90;;;;;;5074030;28;20127;-64
2022/01/21 01:49:37;;;;;;;1999.90;999.90;;;2.40;99.90;;;;;;5035826;28;20675;-64
2022/01/21 01:52:06;;;;;;;1999.90;999.90;;;2.30;99.90;;;;;;5054627;28;20407;-64
2022/01/21 01:54:35;;;;;;;1999.90;999.90;;;2.30;99.90;;;;;;5069741;28;20040;-64
2022/01/21 01:57:02;;;;;;;1999.90;999.90;;;2.20;99.90;;;;;;5073209;28;20088;-64
2022/01/21 01:59:27;;;;;;;1999.90;999.90;;;2.10;99.90;;;;;;5073708;28;20040;-64
2022/01/21 02:01:56;;;;;;;1999.90;999.90;;;2.10;99.90;;;;;;5072665;28;20033;-64
2022/01/21 02:04:23;;;;;;;1999.90;999.90;;;2.20;99.90;;;;;;5052202;28;20048;-64
2022/01/21 02:06:49;;;;;;;1999.90;999.90;;;2.10;99.90;;;;;;5054284;28;20149;-64
2022/01/21 02:09:15;;;;;;;1999.90;999.90;;;2.30;99.90;;;;;;5052554;28;20151;-64
2022/01/21 02:11:41;;;;;;;1999.90;999.90;;;2.30;99.90;;;;;;5065206;28;20049;-64
2022/01/21 02:14:11;;;;;;;1999.90;999.90;;;2.30;99.90;;;;;;5074104;28;20518;-64
2022/01/21 02:17:08;;;;;;;1999.90;999.90;;;2.30;99.90;;;;;;5073885;28;20049;-64
2022/01/21 02:22:18;;;;;;;1999.90;999.90;;;2.30;99.90;;;;;;5072942;28;20040;-64
2022/01/21 02:24:48;;;;;;;1999.90;999.90;;;2.30;99.90;;;;;;5052463;28;20049;-64
2022/01/21 02:27:15;;;;;;;1999.90;999.90;;;2.30;99.90;;;;;;5054365;28;20052;-64
2022/01/21 02:32:13;;;;;;;1999.90;999.90;;;2.20;99.90;;;;;;5072619;28;20141;-64
2022/01/21 02:34:40;;;;;;;1999.90;999.90;;;2.30;99.90;;;;;;5072805;28;20059;-63
2022/01/21 02:37:06;;;;;;;1999.90;999.90;;;2.20;99.90;;;;;;5071590;28;20041;-63
2022/01/21 02:39:32;;;;;;;1999.90;999.90;;;2.10;99.90;;;;;;5072439;28;20076;-64
2022/01/21 02:41:57;;;;;;;1999.90;999.90;;;2.10;99.90;;;;;;5073949;28;20087;-64
2022/01/21 02:44:24;;;;;;;1999.90;999.90;;;2.00;99.90;;;;;;5047910;28;20091;-63
2022/01/21 02:46:55;;;;;;;1999.90;999.90;;;2.10;99.90;;;;;;5051038;28;20055;-64
2022/01/21 02:49:23;;;;;;;1999.90;999.90;;;2.10;99.90;;;;;;5072248;28;20045;-64
2022/01/21 02:51:51;;;;;;;1999.90;999.90;;;2.10;99.90;;;;;;5072829;28;20056;-64
2022/01/21 02:54:17;;;;;;;1999.90;999.90;;;2.20;99.90;;;;;;5073468;28;20482;-64
2022/01/21 02:56:43;;;;;;;1999.90;999.90;;;2.20;99.90;;;;;;5071552;28;20055;-64
2022/01/21 02:59:10;;;;;;;1999.90;999.90;;;2.20;99.90;;;;;;5071775;28;20139;-64
2022/01/21 03:01:37;;;;;;;1999.90;999.90;;;2.20;99.90;;;;;;5073159;28;20150;-64
2022/01/21 03:04:05;;;;;;;1999.90;999.90;;;2.20;99.90;;;;;;5070772;28;20094;-64
2022/01/21 03:06:33;;;;;;;1999.90;999.90;;;2.20;99.90;;;;;;5067917;28;20383;-64
2022/01/21 03:09:00;;;;;;;1999.90;999.90;;;2.20;99.90;;;;;;5051612;28;20049;-64
2022/01/21 03:11:28;;;;;;;1999.90;999.90;;;2.20;99.90;;;;;;5052210;28;20053;-64
2022/01/21 03:13:54;;;;;;;1999.90;999.90;;;2.30;99.90;;;;;;5064929;28;20488;-64
2022/01/21 03:16:21;;;;;;;1999.90;999.90;;;2.30;99.90;;;;;;5071670;28;20468;-64
2022/01/21 03:18:46;;;;;;;1999.90;999.90;;;2.30;99.90;;;;;;5071357;28;20044;-64
2022/01/21 03:21:16;;;;;;;1999.90;999.90;;;2.40;99.90;;;;;;5071296;28;20390;-63
2022/01/21 03:23:46;;;;;;;1999.90;999.90;;;2.40;99.90;;;;;;5060301;28;20124;-64
2022/01/21 03:26:18;;;;;;;1999.90;999.90;;;2.50;99.90;;;;;;5051217;28;20049;-63
2022/01/21 03:28:49;;;;;;;1999.90;999.90;;;2.60;99.90;;;;;;5035276;28;20049;-64
2022/01/21 03:31:15;;;;;;;1999.90;999.90;;;2.60;99.90;;;;;;5078456;28;20052;-64
2022/01/21 03:33:41;;;;;;;1999.90;999.90;;;2.60;99.90;;;;;;5071210;28;20131;-64
2022/01/21 03:36:08;;;;;;;1999.90;999.90;;;2.60;99.90;;;;;;5071650;28;20065;-64
2022/01/21 03:38:35;;;;;;;1999.90;999.90;;;2.60;99.90;;;;;;5054950;28;20045;-64
2022/01/21 03:41:01;;;;;;;1999.90;999.90;;;2.60;99.90;;;;;;5070570;28;20075;-64
2022/01/21 03:43:27;;;;;;;1999.90;999.90;;;2.50;99.90;;;;;;5061831;28;20037;-64
2022/01/21 03:45:54;;;;;;;1999.90;999.90;;;2.40;99.90;;;;;;5031398;28;20048;-64
2022/01/21 03:48:22;;;;;;;1999.90;999.90;;;2.30;99.90;;;;;;5042214;28;20040;-64
2022/01/21 03:50:49;;;;;;;1999.90;999.90;;;2.20;99.90;;;;;;5070985;28;20052;-64
2022/01/21 03:53:16;;;;;;;1999.90;999.90;;;2.20;99.90;;;;;;5071536;28;20055;-63
2022/01/21 03:55:42;;;;;;;1999.90;999.90;;;2.10;99.90;;;;;;5069857;28;20048;-63
2022/01/21 03:58:10;;;;;;;1999.90;999.90;;;2.20;99.90;;;;;;5047393;28;20041;-63
2022/01/21 04:00:46;;;;;;;1999.90;999.90;;;2.10;99.90;;;;;;5050918;28;20077;-63
2022/01/21 04:03:12;;;;;;;1999.90;999.90;;;2.10;99.90;;;;;;5050845;28;20437;-63
2022/01/21 04:05:38;;;;;;;1999.90;999.90;;;2.20;99.90;;;;;;5051141;28;20166;-63
2022/01/21 04:08:06;;;;;;;1999.90;999.90;;;2.20;99.90;;;;;;5050421;28;20101;-64
2022/01/21 04:10:34;;;;;;;1999.90;999.90;;;2.30;99.90;;;;;;5051352;28;20390;-64
2022/01/21 04:13:00;;;;;;;1999.90;999.90;;;2.50;99.90;;;;;;5051206;28;20132;-64
2022/01/21 04:15:26;;;;;;;1999.90;999.90;;;2.50;99.90;;;;;;5064759;28;20119;-63
2022/01/21 04:17:52;;;;;;;1999.90;999.90;;;2.60;99.90;;;;;;5072464;28;20040;-64
2022/01/21 04:20:21;;;;;;;1999.90;999.90;;;2.60;99.90;;;;;;5071522;28;20048;-63
2022/01/21 04:22:47;;;;;;;1999.90;999.90;;;2.40;99.90;;;;;;5068290;28;20525;-64
2022/01/21 04:25:13;;;;;;;1999.90;999.90;;;2.40;99.90;;;;;;5069128;28;20046;-64
2022/01/21 04:27:39;;;;;;;1999.90;999.90;;;2.40;99.90;;;;;;5075176;28;20482;-64
2022/01/21 04:30:07;;;;;;;1999.90;999.90;;;2.30;99.90;;;;;;5074194;28;20044;-64
2022/01/21 04:32:34;;;;;;;1999.90;999.90;;;2.30;99.90;;;;;;5074104;28;20119;-64
2022/01/21 04:35:02;;;;;;;1999.90;999.90;;;2.30;99.90;;;;;;5075222;28;20572;-63
2022/01/21 04:37:28;;;;;;;1999.90;999.90;;;2.30;99.90;;;;;;5057500;28;20483;-63
2022/01/21 04:40:05;;;;;;;1999.90;999.90;;;2.20;99.90;;;;;;5074714;28;20049;-63
2022/01/21 04:48:01;;;;;;;1999.90;999.90;;;2.30;99.90;;;;;;5034998;28;20487;-64
2022/01/21 04:50:27;;;;;;;1999.90;999.90;;;2.40;99.90;;;;;;5060976;28;20087;-63
2022/01/21 04:52:58;;;;;;;1999.90;999.90;;;2.40;99.90;;;;;;5074510;28;20378;-63
2022/01/21 04:55:35;;;;;;;1999.90;999.90;;;2.40;99.90;;;;;;5074503;28;20048;-63
2022/01/21 04:58:02;;;;;;;1999.90;999.90;;;2.40;99.90;;;;;;5074074;28;20389;-63
2022/01/21 05:00:29;;;;;;;1999.90;999.90;;;2.40;99.90;;;;;;5073762;28;20044;-64
2022/01/21 05:02:56;;;;;;;1999.90;999.90;;;2.40;99.90;;;;;;5074392;28;20040;-63
2022/01/21 05:05:23;;;;;;;1999.90;999.90;;;2.40;99.90;;;;;;5061425;28;20483;-63
2022/01/21 05:07:49;;;;;;;1999.90;999.90;;;2.30;99.90;;;;;;5058189;28;20071;-63
2022/01/21 05:10:16;;;;;;;1999.90;999.90;;;2.30;99.90;;;;;;5074304;28;20052;-63
2022/01/21 05:12:43;;;;;;;1999.90;999.90;;;2.20;99.90;;;;;;5073533;28;20043;-63
2022/01/21 05:15:17;;;;;;;1999.90;999.90;;;2.10;99.90;;;;;;5073652;28;20049;-63
2022/01/21 05:17:48;;;;;;;1999.90;999.90;;;2.10;99.90;;;;;;5073646;28;20499;-63
2022/01/21 05:20:17;;;;;;;1999.90;999.90;;;2.10;99.90;;;;;;5073650;28;20045;-63
2022/01/21 05:22:50;;;;;;;1999.90;999.90;;;2.20;99.90;;;;;;5071295;28;20044;-63
2022/01/21 05:25:17;;;;;;;1999.90;999.90;;;2.20;99.90;;;;;;5055953;28;20055;-63
2022/01/21 05:27:46;;;;;;;1999.90;999.90;;;2.10;99.90;;;;;;5074031;28;20052;-63
2022/01/21 05:30:13;;;;;;;1999.90;999.90;;;1.90;99.90;;;;;;5056732;28;20049;-63
2022/01/21 05:32:47;;;;;;;1999.90;999.90;;;1.80;99.90;;;;;;5073098;28;20068;-63
2022/01/21 05:35:29;;;;;;;1999.90;999.90;;;1.80;99.90;;;;;;5056671;28;20048;-63
2022/01/21 05:38:15;;;;;;;1999.90;999.90;;;1.70;99.90;;;;;;5073468;28;20094;-63
2022/01/21 05:41:07;;;;;;;1999.90;999.90;;;1.70;99.90;;;;;;5073961;28;20045;-63
2022/01/21 05:43:48;;;;;;;1999.90;999.90;;;1.70;99.90;;;;;;5059183;28;20112;-63
2022/01/21 05:46:56;;;;;;;1999.90;999.90;;;1.70;99.90;;;;;;5032880;28;20419;-63
2022/01/21 05:49:40;;;;;;;1999.90;999.90;;;1.70;99.90;;;;;;5033244;28;20045;-63
2022/01/21 05:52:40;;;;;;;1999.90;999.90;;;1.70;99.90;;;;;;5050705;28;20041;-63
2022/01/21 05:55:17;;;;;;;1999.90;999.90;;;1.70;99.90;;;;;;5074016;28;20494;-63
2022/01/21 05:58:02;;;;;;;1999.90;999.90;;;1.80;99.90;;;;;;5074729;28;20162;-63
2022/01/21 06:00:28;;;;;;;1999.90;999.90;;;1.80;99.90;;;;;;5073847;28;20485;-63
2022/01/21 06:02:53;;;;;;;1999.90;999.90;;;1.80;99.90;;;;;;5072896;28;20505;-63
2022/01/21 06:05:19;;;;;;;1999.90;999.90;;;1.80;99.90;;;;;;5063119;28;20128;-63
2022/01/21 06:07:46;;;;;;;1999.90;999.90;;;1.80;99.90;;;;;;5052398;28;20052;-63
2022/01/21 06:10:11;;;;;;;1999.90;999.90;;;1.70;99.90;;;;;;5060918;28;20462;-62
2022/01/21 06:12:37;;;;;;;1999.90;999.90;;;1.70;99.90;;;;;;5074532;28;20067;-63
2022/01/21 06:15:03;;;;;;;1999.90;999.90;;;1.60;99.90;;;;;;5072961;28;20059;-63
2022/01/21 06:17:29;;;;;;;1999.90;999.90;;;1.60;99.90;;;;;;5074308;28;20114;-63
2022/01/21 06:19:55;;;;;;;1999.90;999.90;;;1.50;99.90;;;;;;5073792;28;20048;-63
2022/01/21 06:22:21;;;;;;;1999.90;999.90;;;1.50;99.90;;;;;;5073115;28;20102;-63
2022/01/21 06:24:46;;;;;;;1999.90;999.90;;;1.60;99.90;;;;;;5054346;28;20053;-63
2022/01/21 06:27:12;;;;;;;1999.90;999.90;;;1.60;99.90;;;;;;5055912;28;20106;-63
2022/01/21 06:29:38;;;;;;;1999.90;999.90;;;1.70;99.90;;;;;;5071560;28;20059;-63
2022/01/21 06:32:04;;;;;;;1999.90;999.90;;;1.80;99.90;;;;;;5074138;28;20431;-64
2022/01/21 06:34:30;;;;;;;1999.90;999.90;;;1.80;99.90;;;;;;5072859;28;20131;-64
2022/01/21 06:36:56;;;;;;;1999.90;999.90;;;1.90;99.90;;;;;;5072492;28;20128;-64
2022/01/21 06:39:22;;;;;;;1999.90;999.90;;;1.90;99.90;;;;;;5074057;28;20506;-63
2022/01/21 06:41:48;;;;;;;1999.90;999.90;;;2.00;99.90;;;;;;5073924;28;20555;-63
2022/01/21 06:44:14;;;;;;;1999.90;999.90;;;2.00;99.90;;;;;;5050285;28;20369;-63
2022/01/21 06:46:41;;;;;;;1999.90;999.90;;;1.90;99.90;;;;;;5050798;28;20085;-63
2022/01/21 06:49:07;;;;;;;1999.90;999.90;;;1.90;99.90;;;;;;5053210;28;20044;-64
2022/01/21 06:51:32;;;;;;;1999.90;999.90;;;1.90;99.90;;;;;;5052671;28;20045;-64
2022/01/21 06:53:58;;;;;;;1999.90;999.90;;;2.00;99.90;;;;;;5057276;28;20407;-63
2022/01/21 06:56:24;;;;;;;1999.90;999.90;;;2.10;99.90;;;;;;5073778;28;20075;-64
2022/01/21 06:58:50;;;;;;;1999.90;999.90;;;2.20;99.90;;;;;;5072538;28;20048;-63
2022/01/21 07:01:15;;;;;;;1999.90;999.90;;;2.10;99.90;;;;;;5073542;28;20059;-64
2022/01/21 07:03:41;;;;;;;1999.90;999.90;;;2.20;99.90;;;;;;5061917;28;20037;-63
2022/01/21 07:06:07;;;;;;;1999.90;999.90;;;2.20;99.90;;;;;;5052248;28;20056;-64
2022/01/21 07:08:34;;;;;;;1999.90;999.90;;;2.20;99.90;;;;;;5052001;28;20136;-63
2022/01/21 07:11:00;;;;;;;1999.90;999.90;;;2.30;99.90;;;;;;5051234;28;20048;-64
2022/01/21 07:13:26;;;;;;;1999.90;999.90;;;2.30;99.90;;;;;;5071663;28;20075;-63
2022/01/21 07:15:52;;;;;;;1999.90;999.90;;;2.30;99.90;;;;;;5072863;28;20505;-64
2022/01/21 07:18:17;;;;;;;1999.90;999.90;;;2.30;99.90;;;;;;5072666;28;20032;-64
2022/01/21 07:20:43;;;;;;;1999.90;999.90;;;2.40;99.90;;;;;;5072381;28;20105;-64
2022/01/21 07:23:09;;;;;;;1999.90;999.90;;;2.40;99.90;;;;;;5066539;28;20407;-64
2022/01/21 07:25:36;;;;;;;1999.90;999.90;;;2.50;99.90;;;;;;5052430;28;20037;-64
2022/01/21 07:28:04;;;;;;;1999.90;999.90;;;2.60;99.90;;;;;;5052863;28;20057;-64
2022/01/21 07:30:30;;;;;;;1999.90;999.90;;;2.70;99.90;;;;;;5064687;28;20056;-64
2022/01/21 07:32:56;;;;;;;1999.90;999.90;;;2.80;99.90;;;;;;5072268;28;20045;-64
2022/01/21 07:35:22;;;;;;;1999.90;999.90;;;2.80;99.90;;;;;;5072599;28;20041;-64
2022/01/21 07:37:48;;;;;;;1999.90;999.90;;;2.70;99.90;;;;;;5070591;28;20048;-64
2022/01/21 07:40:13;;;;;;;1999.90;999.90;;;2.80;99.90;;;;;;5052355;28;20049;-64
2022/01/21 07:42:39;;;;;;;1999.90;999.90;;;2.80;99.90;;;;;;5052808;28;20052;-64
2022/01/21 07:45:06;;;;;;;1999.90;999.90;;;2.80;99.90;;;;;;5052623;28;20115;-64
2022/01/21 07:47:31;;;;;;;1999.90;999.90;;;2.80;99.90;;;;;;5058806;28;20146;-64
2022/01/21 07:49:57;;;;;;;1999.90;999.90;;;2.90;99.90;;;;;;5072597;28;20127;-64
2022/01/21 07:52:23;;;;;;;1999.90;999.90;;;3.00;99.90;;;;;;5072329;28;20120;-64
2022/01/21 07:54:49;;;;;;;1999.90;999.90;;;3.00;99.90;;;;;;5071921;28;20242;-64
2022/01/21 07:57:14;;;;;;;1999.90;999.90;;;3.00;99.90;;;;;;5072178;28;20398;-64
2022/01/21 07:59:41;;;;;;;1999.90;999.90;;;3.00;99.90;;;;;;5072665;28;20052;-64
2022/01/21 08:02:07;;;;;;;1999.90;999.90;;;3.00;99.90;;;;;;5073994;28;20036;-64
2022/01/21 08:04:33;;;;;;;1999.90;999.90;;;3.00;99.90;;;;;;5073882;28;20091;-63
2022/01/21 08:06:59;;;;;;;1999.90;999.90;;;3.00;99.90;;;;;;5076292;28;20095;-63
2022/01/21 08:09:25;;;;;;;1999.90;999.90;;;3.00;99.90;;;;;;5076075;28;20364;-63
2022/01/21 08:11:52;;;;;;;1999.90;999.90;;;3.00;99.90;;;;;;5076862;28;20044;-64
2022/01/21 08:14:18;;;;;;;1999.90;999.90;;;3.00;99.90;;;;;;5074632;28;20044;-63
2022/01/21 08:16:44;;;;;;;1999.90;999.90;;;3.00;99.90;;;;;;5076860;28;20048;-63
2022/01/21 08:19:10;;;;;;;1999.90;999.90;;;3.00;99.90;;;;;;5058565;28;20502;-63
2022/01/21 08:21:35;;;;;;;1999.90;999.90;;;2.90;99.90;;;;;;5074252;28;20615;-63
2022/01/21 08:24:03;;;;;;;1999.90;999.90;;;2.90;99.90;;;;;;5062398;28;20041;-64
2022/01/21 08:26:29;;;;;;;1999.90;999.90;;;2.90;99.90;;;;;;5056522;28;20084;-64
2022/01/21 08:28:56;;;;;;;1999.90;999.90;;;2.80;99.90;;;;;;5055129;28;20099;-64
2022/01/21 08:31:23;;;;;;;1999.90;999.90;;;2.80;99.90;;;;;;5059384;28;20075;-63
2022/01/21 08:33:50;;;;;;;1999.90;999.90;;;2.80;99.90;;;;;;5076450;28;20072;-64
2022/01/21 08:36:19;;;;;;;1999.90;999.90;;;2.70;99.90;;;;;;5075257;28;20045;-64
2022/01/21 08:38:45;;;;;;;1999.90;999.90;;;2.70;99.90;;;;;;5076360;28;20056;-63
2022/01/21 08:41:11;;;;;;;1999.90;999.90;;;2.70;99.90;;;;;;5074249;28;20051;-63
2022/01/21 08:43:37;;;;;;;1999.90;999.90;;;2.70;99.90;;;;;;5062587;28;20045;-63
2022/01/21 08:46:03;;;;;;;1999.90;999.90;;;2.70;99.90;;;;;;5036311;28;20045;-63
2022/01/21 08:48:29;;;;;;;1999.90;999.90;;;2.80;99.90;;;;;;5036285;28;20099;-63
2022/01/21 08:50:57;;;;;;;1999.90;999.90;;;2.80;99.90;;;;;;5074161;28;20045;-63
2022/01/21 08:53:36;;;;;;;1999.90;999.90;;;2.90;99.90;;;;;;5058156;28;20052;-63
2022/01/21 08:56:03;;;;;;;1999.90;999.90;;;2.90;99.90;;;;;;5074626;28;20132;-64
2022/01/21 08:58:30;;;;;;;1999.90;999.90;;;3.00;99.90;;;;;;5074425;28;20102;-63
2022/01/21 09:00:56;;;;;;;1999.90;999.90;;;3.00;99.90;;;;;;5075917;28;20079;-63
2022/01/21 09:03:22;;;;;;;1999.90;999.90;;;3.00;99.90;;;;;;5073875;28;20409;-63
2022/01/21 09:05:49;;;;;;;1999.90;999.90;;;3.10;99.90;;;;;;5059780;28;20128;-63
2022/01/21 09:08:16;;;;;;;1999.90;999.90;;;3.20;99.90;;;;;;5072305;28;20056;-63
2022/01/21 09:10:42;;;;;;;1999.90;999.90;;;3.20;99.90;;;;;;5073336;28;20064;-63
2022/01/21 09:13:08;;;;;;;1999.90;999.90;;;3.30;99.90;;;;;;5075049;28;20433;-64
2022/01/21 09:15:34;;;;;;;1999.90;999.90;;;3.40;99.90;;;;;;5074758;28;20119;-64
2022/01/21 09:18:04;;;;;;;1999.90;999.90;;;3.40;99.90;;;;;;5074426;28;20055;-64
2022/01/21 09:20:31;;;;;;;1999.90;999.90;;;3.40;99.90;;;;;;5075171;28;20062;-63
2022/01/21 09:22:57;;;;;;;1999.90;999.90;;;3.40;99.90;;;;;;5070791;28;20041;-63
2022/01/21 09:25:22;;;;;;;1999.90;999.90;;;3.40;99.90;;;;;;5066566;28;20044;-64
2022/01/21 09:27:48;;;;;;;1999.90;999.90;;;3.50;99.90;;;;;;5073688;28;20052;-63
2022/01/21 09:30:14;;;;;;;1999.90;999.90;;;3.50;99.90;;;;;;5075137;28;20048;-63
2022/01/21 09:32:40;;;;;;;1999.90;999.90;;;3.50;99.90;;;;;;5071022;28;20033;-63
2022/01/21 09:35:06;;;;;;;1999.90;999.90;;;3.50;99.90;;;;;;5056916;28;20457;-64
2022/01/21 09:37:32;;;;;;;1999.90;999.90;;;3.50;99.90;;;;;;5054474;28;20561;-63
2022/01/21 09:39:57;;;;;;;1999.90;999.90;;;3.60;99.90;;;;;;5054012;28;20091;-63
2022/01/21 09:42:24;;;;;;;1999.90;999.90;;;3.60;99.90;;;;;;5052937;28;20039;-63
2022/01/21 09:44:51;;;;;;;1999.90;999.90;;;3.60;99.90;;;;;;5052168;28;20045;-63
2022/01/21 09:47:19;;;;;;;1999.90;999.90;;;3.60;99.90;;;;;;5053952;28;20032;-64
2022/01/21 09:49:45;;;;;;;1999.90;999.90;;;3.60;99.90;;;;;;5054160;28;20060;-64
2022/01/21 09:52:14;;;;;;;1999.90;999.90;;;3.70;99.90;;;;;;5054143;28;20121;-64
2022/01/21 09:54:48;;;;;;;1999.90;999.90;;;3.80;99.90;;;;;;5053853;28;20473;-64
2022/01/21 09:57:21;;;;;;;1999.90;999.90;;;3.80;99.90;;;;;;5049854;28;20076;-64
2022/01/21 09:59:48;;;;;;;1999.90;999.90;;;3.90;99.90;;;;;;5065960;28;20471;-63
2022/01/21 10:02:18;;;;;;;1999.90;999.90;;;3.90;99.90;;;;;;5053603;28;20045;-64
2022/01/21 10:04:49;;;;;;;1999.90;999.90;;;3.90;99.90;;;;;;5053953;28;20049;-63
2022/01/21 10:07:19;;;;;;;1999.90;999.90;;;3.90;99.90;;;;;;5050718;28;20049;-64
2022/01/21 10:09:47;;;;;;;1999.90;999.90;;;4.00;99.90;;;;;;5056026;28;20049;-63
2022/01/21 10:12:14;;;;;;;1999.90;999.90;;;4.10;99.90;;;;;;5053056;28;20051;-64
2022/01/21 10:14:41;;;;;;;1999.90;999.90;;;4.20;99.90;;;;;;5062084;28;20064;-64
2022/01/21 10:17:09;;;;;;;1999.90;999.90;;;4.30;99.90;;;;;;5073283;28;20123;-63
2022/01/21 10:19:39;;;;;;;1999.90;999.90;;;4.40;99.90;;;;;;5052746;28;20059;-63
2022/01/21 10:22:16;;;;;;;1999.90;999.90;;;4.40;99.90;;;;;;5053663;28;20041;-64
2022/01/21 10:24:58;;;;;;;1999.90;999.90;;;4.50;99.90;;;;;;5052985;28;20128;-63
2022/01/21 10:27:26;;;;;;;1999.90;999.90;;;4.60;99.90;;;;;;5066309;28;20091;-64
2022/01/21 10:29:52;;;;;;;1999.90;999.90;;;4.60;99.90;;;;;;5073186;28;20410;-64
2022/01/21 10:32:36;;;;;;;1999.90;999.90;;;4.70;99.90;;;;;;5074267;28;20064;-64
2022/01/21 10:35:02;;;;;;;1999.90;999.90;;;4.80;99.90;;;;;;5072212;28;20402;-64
2022/01/21 10:37:34;;;;;;;1999.90;999.90;;;4.80;99.90;;;;;;5058489;28;20049;-64
2022/01/21 10:40:08;;;;;;;1999.90;999.90;;;4.80;99.90;;;;;;5053638;28;20044;-64
2022/01/21 10:42:34;;;;;;;1999.90;999.90;;;4.80;99.90;;;;;;5052851;28;20044;-64
2022/01/21 10:45:02;;;;;;;1999.90;999.90;;;4.80;99.90;;;;;;5059552;28;20052;-64
2022/01/21 10:47:34;;;;;;;1999.90;999.90;;;4.80;99.90;;;;;;5073837;28;20489;-64
2022/01/21 10:50:03;;;;;;;1999.90;999.90;;;4.80;99.90;;;;;;5072658;28;20422;-64
2022/01/21 10:52:32;;;;;;;1999.90;999.90;;;4.80;99.90;;;;;;5073347;28;20037;-64
2022/01/21 10:54:58;;;;;;;1999.90;999.90;;;4.80;99.90;;;;;;5073800;28;20044;-63
2022/01/21 10:57:25;;;;;;;1999.90;999.90;;;4.80;99.90;;;;;;5072469;28;20044;-64
2022/01/21 10:59:58;;;;;;;1999.90;999.90;;;4.80;99.90;;;;;;5072434;28;20060;-64
2022/01/21 11:02:34;;;;;;;1999.90;999.90;;;4.80;99.90;;;;;;5072960;28;20047;-64
2022/01/21 11:05:06;;;;;;;1999.90;999.90;;;4.90;99.90;;;;;;5063741;28;20052;-64
2022/01/21 11:07:54;;;;;;;1999.90;999.90;;;5.00;99.90;;;;;;5053131;28;20056;-64
2022/01/21 11:10:38;;;;;;;1999.90;999.90;;;5.00;99.90;;;;;;5053144;28;20095;-64
2022/01/21 11:13:12;;;;;;;1999.90;999.90;;;5.00;99.90;;;;;;5073347;28;20123;-64
2022/01/21 11:15:50;;;;;;;1999.90;999.90;;;5.20;99.90;;;;;;5072686;28;20083;-64
2022/01/21 11:18:19;;;;;;;1999.90;999.90;;;5.20;99.90;;;;;;5072010;28;20506;-64
2022/01/21 11:20:48;;;;;;;1999.90;999.90;;;5.20;99.90;;;;;;5072755;28;20055;-64
2022/01/21 11:23:15;;;;;;;1999.90;999.90;;;5.20;99.90;;;;;;5066098;28;20047;-64
2022/01/21 11:25:43;;;;;;;1999.90;999.90;;;5.20;99.90;;;;;;5052089;28;20051;-64
2022/01/21 11:28:11;;;;;;;1999.90;999.90;;;5.30;99.90;;;;;;5053076;28;20458;-64
2022/01/21 11:30:37;;;;;;;1999.90;999.90;;;5.30;99.90;;;;;;5052735;28;20053;-64
2022/01/21 11:33:03;;;;;;;1999.90;999.90;;;5.30;99.90;;;;;;5051926;28;20045;-64
2022/01/21 11:35:30;;;;;;;1999.90;999.90;;;5.30;99.90;;;;;;5052560;28;20048;-64
2022/01/21 11:37:58;;;;;;;1999.90;999.90;;;5.30;99.90;;;;;;5063213;28;20444;-64
2022/01/21 11:40:25;;;;;;;1999.90;999.90;;;5.40;99.90;;;;;;5071777;28;20063;-64
2022/01/21 11:42:51;;;;;;;1999.90;999.90;;;5.40;99.90;;;;;;5072648;28;20395;-64
2022/01/21 11:45:53;;;;;;;1999.90;999.90;;;5.60;99.90;;;;;;5030852;28;20060;-64
2022/01/21 11:50:41;;;;;;;1999.90;999.90;;;5.80;99.90;;;;;;5051784;28;20059;-64
2022/01/21 11:53:07;;;;;;;1999.90;999.90;;;6.00;99.90;;;;;;5049022;28;20041;-64
2022/01/21 11:55:38;;;;;;;1999.90;999.90;;;6.10;99.90;;;;;;5054607;28;20509;-64
2022/01/21 11:58:13;;;;;;;1999.90;999.90;;;6.10;99.90;;;;;;5050701;28;20053;-64
2022/01/21 12:00:40;;;;;;;1999.90;999.90;;;6.20;99.90;;;;;;5047486;28;20076;-64
2022/01/21 12:03:06;;;;;;;1999.90;999.90;;;6.30;99.90;;;;;;5052261;28;20467;-64
2022/01/21 12:05:33;;;;;;;1999.90;999.90;;;6.30;99.90;;;;;;5052093;28;20040;-65
2022/01/21 12:08:03;;;;;;;1999.90;999.90;;;6.40;99.90;;;;;;5051842;28;20075;-64
2022/01/21 12:10:39;;;;;;;1999.90;999.90;;;6.50;99.90;;;;;;5052151;28;20123;-64
2022/01/21 12:13:14;;;;;;;1999.90;999.90;;;6.50;99.90;;;;;;5046150;28;20132;-64
2022/01/21 12:20:55;;;;;;;1999.90;999.90;;;6.60;99.90;;;;;;5047858;28;20057;-63
2022/01/21 12:23:22;;;;;;;1999.90;999.90;;;6.70;99.90;;;;;;5063410;28;20033;-63
2022/01/21 12:26:11;;;;;;;1999.90;999.90;;;6.60;99.90;;;;;;5051987;28;20064;-64
2022/01/21 12:28:38;;;;;;;1999.90;999.90;;;6.70;99.90;;;;;;5050198;28;20483;-64
2022/01/21 12:31:05;;;;;;;1999.90;999.90;;;6.70;99.90;;;;;;5058082;28;20439;-64
2022/01/21 12:34:02;;;;;;;1999.90;999.90;;;6.70;99.90;;;;;;5051826;28;20411;-64
2022/01/21 12:36:31;;;;;;;1999.90;999.90;;;6.70;99.90;;;;;;5051568;28;20110;-64
2022/01/21 12:41:24;;;;;;;1999.90;999.90;;;6.60;99.90;;;;;;5054217;28;20404;-63
2022/01/21 12:43:53;;;;;;;1999.90;999.90;;;6.70;99.90;;;;;;5039838;28;20057;-64
2022/01/21 12:46:23;;;;;;;1999.90;999.90;;;6.70;99.90;;;;;;5051683;28;20114;-63
2022/01/21 12:48:49;;;;;;;1999.90;999.90;;;6.70;99.90;;;;;;5057523;28;20127;-64
2022/01/21 12:51:55;;;;;;;1999.90;999.90;;;6.70;99.90;;;;;;5075911;28;20418;-64
2022/01/21 12:57:10;;;;;;;1999.90;999.90;;;6.70;99.90;;;;;;5074605;28;20040;-64
2022/01/21 12:59:36;;;;;;;1999.90;999.90;;;6.80;99.90;;;;;;5075921;28;20169;-64
2022/01/21 13:02:05;;;;;;;1999.90;999.90;;;6.70;99.90;;;;;;5075227;28;20045;-64
2022/01/21 13:04:57;;;;;;;1999.90;999.90;;;6.80;99.90;;;;;;5069964;28;20495;-65
2022/01/21 13:07:31;;;;;;;1999.90;999.90;;;6.70;99.90;;;;;;5073414;28;20437;-65
2022/01/21 13:10:15;;;;;;;1999.90;999.90;;;6.70;99.90;;;;;;5074277;28;20060;-65